sensor_id;sensor_type;location;lat;lon;timestamp;P1;durP1;ratioP1;P2;durP2;ratioP2
22881;SDS011;11608;50.894;5.296;2023-01-15T00:00:57;24.63;;;22.88;;
22881;SDS011;11608;50.894;5.296;2023-01-15T00:03:23;24.15;;;22.35;;
22881;SDS011;11608;50.894;5.296;2023-01-15T00:05:49;25.08;;;23.25;;
22881;SDS011;11608;50.894;5.296;2023-01-15T00:08:15;25.73;;;23.83;;
22881;SDS011;11608;50.894;5.296;2023-01-15T00:10:41;24.13;;;22.20;;
22881;SDS011;11608;50.894;5.296;2023-01-15T00:13:07;23.08;;;21.48;;
22881;SDS011;11608;50.894;5.296;2023-01-15T00:15:33;24.55;;;22.60;;
22881;SDS011;11608;50.894;5.296;2023-01-15T00:18:00;27.30;;;25.30;;
22881;SDS011;11608;50.894;5.296;2023-01-15T00:20:26;25.23;;;23.42;;
22881;SDS011;11608;50.894;5.296;2023-01-15T00:22:52;25.48;;;23.55;;
22881;SDS011;11608;50.894;5.296;2023-01-15T00:25:18;23.85;;;21.90;;
22881;SDS011;11608;50.894;5.296;2023-01-15T00:28:02;23.88;;;22.17;;
22881;SDS011;11608;50.894;5.296;2023-01-15T00:30:28;24.13;;;22.13;;
22881;SDS011;11608;50.894;5.296;2023-01-15T00:32:54;24.67;;;22.83;;
22881;SDS011;11608;50.894;5.296;2023-01-15T00:35:21;25.27;;;23.08;;
22881;SDS011;11608;50.894;5.296;2023-01-15T00:37:48;23.15;;;21.65;;
22881;SDS011;11608;50.894;5.296;2023-01-15T00:40:14;26.08;;;24.00;;
22881;SDS011;11608;50.894;5.296;2023-01-15T00:42:41;25.65;;;23.63;;
22881;SDS011;11608;50.894;5.296;2023-01-15T00:45:07;25.83;;;23.73;;
22881;SDS011;11608;50.894;5.296;2023-01-15T00:47:37;24.85;;;23.00;;
22881;SDS011;11608;50.894;5.296;2023-01-15T00:50:04;27.42;;;25.38;;
22881;SDS011;11608;50.894;5.296;2023-01-15T00:52:30;28.70;;;26.50;;
22881;SDS011;11608;50.894;5.296;2023-01-15T00:54:56;27.05;;;25.05;;
22881;SDS011;11608;50.894;5.296;2023-01-15T00:57:22;26.67;;;24.77;;
22881;SDS011;11608;50.894;5.296;2023-01-15T00:59:48;26.63;;;24.70;;
22881;SDS011;11608;50.894;5.296;2023-01-15T01:02:14;27.80;;;25.35;;
22881;SDS011;11608;50.894;5.296;2023-01-15T01:04:40;28.45;;;26.30;;
22881;SDS011;11608;50.894;5.296;2023-01-15T01:07:06;28.45;;;26.27;;
22881;SDS011;11608;50.894;5.296;2023-01-15T01:09:32;28.40;;;26.08;;
22881;SDS011;11608;50.894;5.296;2023-01-15T01:11:59;27.05;;;25.15;;
22881;SDS011;11608;50.894;5.296;2023-01-15T01:14:25;29.25;;;26.85;;
22881;SDS011;11608;50.894;5.296;2023-01-15T01:16:51;28.73;;;26.50;;
22881;SDS011;11608;50.894;5.296;2023-01-15T01:19:18;28.77;;;26.42;;
22881;SDS011;11608;50.894;5.296;2023-01-15T01:21:45;29.70;;;27.58;;
22881;SDS011;11608;50.894;5.296;2023-01-15T01:24:12;28.65;;;26.33;;
22881;SDS011;11608;50.894;5.296;2023-01-15T01:26:38;29.00;;;26.77;;
22881;SDS011;11608;50.894;5.296;2023-01-15T01:29:04;28.45;;;26.33;;
22881;SDS011;11608;50.894;5.296;2023-01-15T01:31:30;27.50;;;25.50;;
22881;SDS011;11608;50.894;5.296;2023-01-15T01:33:57;28.75;;;26.60;;
22881;SDS011;11608;50.894;5.296;2023-01-15T01:36:31;28.08;;;25.80;;
22881;SDS011;11608;50.894;5.296;2023-01-15T01:38:57;26.67;;;24.80;;
22881;SDS011;11608;50.894;5.296;2023-01-15T01:41:24;27.67;;;25.60;;
22881;SDS011;11608;50.894;5.296;2023-01-15T01:46:36;28.38;;;26.00;;
22881;SDS011;11608;50.894;5.296;2023-01-15T01:49:07;26.25;;;24.17;;
22881;SDS011;11608;50.894;5.296;2023-01-15T01:51:44;26.75;;;24.67;;
22881;SDS011;11608;50.894;5.296;2023-01-15T01:54:12;26.88;;;24.50;;
22881;SDS011;11608;50.894;5.296;2023-01-15T01:56:39;28.98;;;25.95;;
22881;SDS011;11608;50.894;5.296;2023-01-15T01:59:05;27.90;;;25.48;;
22881;SDS011;11608;50.894;5.296;2023-01-15T02:01:31;27.95;;;25.13;;
22881;SDS011;11608;50.894;5.296;2023-01-15T02:03:57;26.15;;;24.17;;
22881;SDS011;11608;50.894;5.296;2023-01-15T02:06:24;26.85;;;24.52;;
22881;SDS011;11608;50.894;5.296;2023-01-15T02:08:51;27.23;;;25.00;;
22881;SDS011;11608;50.894;5.296;2023-01-15T02:11:18;27.00;;;24.88;;
22881;SDS011;11608;50.894;5.296;2023-01-15T02:13:46;27.45;;;25.13;;
22881;SDS011;11608;50.894;5.296;2023-01-15T02:16:15;27.48;;;25.35;;
22881;SDS011;11608;50.894;5.296;2023-01-15T02:19:03;28.70;;;26.42;;
22881;SDS011;11608;50.894;5.296;2023-01-15T02:21:42;28.25;;;25.85;;
22881;SDS011;11608;50.894;5.296;2023-01-15T02:27:17;27.75;;;25.45;;
22881;SDS011;11608;50.894;5.296;2023-01-15T02:29:58;28.20;;;26.10;;
22881;SDS011;11608;50.894;5.296;2023-01-15T02:35:00;27.55;;;25.48;;
22881;SDS011;11608;50.894;5.296;2023-01-15T02:37:28;28.90;;;26.38;;
22881;SDS011;11608;50.894;5.296;2023-01-15T02:39:55;28.85;;;26.42;;
22881;SDS011;11608;50.894;5.296;2023-01-15T02:42:22;27.40;;;24.95;;
22881;SDS011;11608;50.894;5.296;2023-01-15T02:44:50;28.40;;;26.15;;
22881;SDS011;11608;50.894;5.296;2023-01-15T02:47:18;27.67;;;25.17;;
22881;SDS011;11608;50.894;5.296;2023-01-15T02:49:46;28.05;;;25.70;;
22881;SDS011;11608;50.894;5.296;2023-01-15T02:52:15;28.90;;;26.70;;
22881;SDS011;11608;50.894;5.296;2023-01-15T02:54:45;27.45;;;25.13;;
22881;SDS011;11608;50.894;5.296;2023-01-15T02:57:12;26.52;;;24.52;;
22881;SDS011;11608;50.894;5.296;2023-01-15T02:59:40;28.15;;;25.73;;
22881;SDS011;11608;50.894;5.296;2023-01-15T03:02:12;27.60;;;25.50;;
22881;SDS011;11608;50.894;5.296;2023-01-15T03:04:42;27.75;;;25.60;;
22881;SDS011;11608;50.894;5.296;2023-01-15T03:07:11;27.40;;;25.08;;
22881;SDS011;11608;50.894;5.296;2023-01-15T03:09:39;28.05;;;25.38;;
22881;SDS011;11608;50.894;5.296;2023-01-15T03:14:35;27.55;;;25.00;;
22881;SDS011;11608;50.894;5.296;2023-01-15T03:17:09;29.35;;;27.23;;
22881;SDS011;11608;50.894;5.296;2023-01-15T03:22:09;29.80;;;27.27;;
22881;SDS011;11608;50.894;5.296;2023-01-15T03:24:43;28.10;;;25.85;;
22881;SDS011;11608;50.894;5.296;2023-01-15T03:27:11;29.02;;;26.90;;
22881;SDS011;11608;50.894;5.296;2023-01-15T03:29:38;29.27;;;26.60;;
22881;SDS011;11608;50.894;5.296;2023-01-15T03:32:05;29.70;;;26.95;;
22881;SDS011;11608;50.894;5.296;2023-01-15T03:34:51;28.95;;;26.55;;
22881;SDS011;11608;50.894;5.296;2023-01-15T03:37:18;29.00;;;26.40;;
22881;SDS011;11608;50.894;5.296;2023-01-15T03:39:45;29.10;;;26.48;;
22881;SDS011;11608;50.894;5.296;2023-01-15T03:44:59;30.08;;;27.13;;
22881;SDS011;11608;50.894;5.296;2023-01-15T03:50:07;29.20;;;27.00;;
22881;SDS011;11608;50.894;5.296;2023-01-15T03:55:11;29.20;;;26.95;;
22881;SDS011;11608;50.894;5.296;2023-01-15T04:00:14;28.55;;;26.08;;
22881;SDS011;11608;50.894;5.296;2023-01-15T04:02:43;30.00;;;27.48;;
22881;SDS011;11608;50.894;5.296;2023-01-15T04:05:10;28.48;;;25.80;;
22881;SDS011;11608;50.894;5.296;2023-01-15T04:07:36;27.45;;;25.23;;
22881;SDS011;11608;50.894;5.296;2023-01-15T04:10:05;28.25;;;25.98;;
22881;SDS011;11608;50.894;5.296;2023-01-15T04:12:31;28.63;;;26.30;;
22881;SDS011;11608;50.894;5.296;2023-01-15T04:14:58;29.08;;;26.58;;
22881;SDS011;11608;50.894;5.296;2023-01-15T04:17:24;29.63;;;27.23;;
22881;SDS011;11608;50.894;5.296;2023-01-15T04:19:50;28.40;;;26.23;;
22881;SDS011;11608;50.894;5.296;2023-01-15T04:22:16;29.70;;;27.60;;
22881;SDS011;11608;50.894;5.296;2023-01-15T04:24:43;27.55;;;25.63;;
22881;SDS011;11608;50.894;5.296;2023-01-15T04:27:09;29.75;;;27.50;;
22881;SDS011;11608;50.894;5.296;2023-01-15T04:29:35;29.75;;;27.52;;
22881;SDS011;11608;50.894;5.296;2023-01-15T04:32:01;27.80;;;25.50;;
22881;SDS011;11608;50.894;5.296;2023-01-15T04:34:27;29.80;;;27.17;;
22881;SDS011;11608;50.894;5.296;2023-01-15T04:36:54;28.35;;;26.10;;
22881;SDS011;11608;50.894;5.296;2023-01-15T04:39:20;27.55;;;25.70;;
22881;SDS011;11608;50.894;5.296;2023-01-15T04:41:46;29.23;;;26.80;;
22881;SDS011;11608;50.894;5.296;2023-01-15T04:44:32;28.92;;;26.65;;
22881;SDS011;11608;50.894;5.296;2023-01-15T04:46:58;27.98;;;25.58;;
22881;SDS011;11608;50.894;5.296;2023-01-15T04:49:24;27.98;;;25.77;;
22881;SDS011;11608;50.894;5.296;2023-01-15T04:51:50;27.33;;;25.08;;
22881;SDS011;11608;50.894;5.296;2023-01-15T04:54:17;28.98;;;26.85;;
22881;SDS011;11608;50.894;5.296;2023-01-15T04:56:47;29.35;;;27.05;;
22881;SDS011;11608;50.894;5.296;2023-01-15T04:59:14;28.20;;;26.02;;
22881;SDS011;11608;50.894;5.296;2023-01-15T05:01:40;28.95;;;26.65;;
22881;SDS011;11608;50.894;5.296;2023-01-15T05:04:06;28.65;;;26.42;;
22881;SDS011;11608;50.894;5.296;2023-01-15T05:06:33;27.85;;;25.77;;
22881;SDS011;11608;50.894;5.296;2023-01-15T05:08:59;27.42;;;25.17;;
22881;SDS011;11608;50.894;5.296;2023-01-15T05:11:26;27.58;;;25.42;;
22881;SDS011;11608;50.894;5.296;2023-01-15T05:13:53;25.98;;;24.10;;
22881;SDS011;11608;50.894;5.296;2023-01-15T05:16:19;27.20;;;25.17;;
22881;SDS011;11608;50.894;5.296;2023-01-15T05:18:47;29.60;;;27.27;;
22881;SDS011;11608;50.894;5.296;2023-01-15T05:21:17;29.05;;;26.70;;
22881;SDS011;11608;50.894;5.296;2023-01-15T05:23:44;28.40;;;26.30;;
22881;SDS011;11608;50.894;5.296;2023-01-15T05:26:11;27.52;;;25.35;;
22881;SDS011;11608;50.894;5.296;2023-01-15T05:28:37;27.60;;;25.70;;
22881;SDS011;11608;50.894;5.296;2023-01-15T05:31:22;30.25;;;27.80;;
22881;SDS011;11608;50.894;5.296;2023-01-15T05:33:49;28.25;;;26.30;;
22881;SDS011;11608;50.894;5.296;2023-01-15T05:36:16;29.50;;;27.43;;
22881;SDS011;11608;50.894;5.296;2023-01-15T05:38:42;29.25;;;27.15;;
22881;SDS011;11608;50.894;5.296;2023-01-15T05:41:10;30.27;;;27.80;;
22881;SDS011;11608;50.894;5.296;2023-01-15T05:43:55;29.92;;;27.58;;
22881;SDS011;11608;50.894;5.296;2023-01-15T05:46:21;28.17;;;26.37;;
22881;SDS011;11608;50.894;5.296;2023-01-15T05:48:48;29.03;;;26.80;;
22881;SDS011;11608;50.894;5.296;2023-01-15T05:51:14;28.90;;;26.75;;
22881;SDS011;11608;50.894;5.296;2023-01-15T05:53:40;26.08;;;24.20;;
22881;SDS011;11608;50.894;5.296;2023-01-15T05:56:06;28.13;;;25.88;;
22881;SDS011;11608;50.894;5.296;2023-01-15T05:58:32;26.67;;;24.77;;
22881;SDS011;11608;50.894;5.296;2023-01-15T06:00:58;25.87;;;24.17;;
22881;SDS011;11608;50.894;5.296;2023-01-15T06:03:25;25.95;;;23.90;;
22881;SDS011;11608;50.894;5.296;2023-01-15T06:05:52;27.60;;;25.10;;
22881;SDS011;11608;50.894;5.296;2023-01-15T06:08:18;27.10;;;24.92;;
22881;SDS011;11608;50.894;5.296;2023-01-15T06:10:44;27.00;;;25.03;;
22881;SDS011;11608;50.894;5.296;2023-01-15T06:13:11;27.23;;;25.07;;
22881;SDS011;11608;50.894;5.296;2023-01-15T06:15:37;27.17;;;25.27;;
22881;SDS011;11608;50.894;5.296;2023-01-15T06:18:03;26.33;;;24.60;;
22881;SDS011;11608;50.894;5.296;2023-01-15T06:20:29;25.73;;;23.83;;
22881;SDS011;11608;50.894;5.296;2023-01-15T06:22:55;26.23;;;24.43;;
22881;SDS011;11608;50.894;5.296;2023-01-15T06:25:21;25.93;;;23.93;;
22881;SDS011;11608;50.894;5.296;2023-01-15T06:27:47;25.03;;;23.20;;
22881;SDS011;11608;50.894;5.296;2023-01-15T06:30:13;26.27;;;24.27;;
22881;SDS011;11608;50.894;5.296;2023-01-15T06:32:40;25.17;;;23.27;;
22881;SDS011;11608;50.894;5.296;2023-01-15T06:35:06;23.90;;;22.30;;
22881;SDS011;11608;50.894;5.296;2023-01-15T06:37:32;23.60;;;21.90;;
22881;SDS011;11608;50.894;5.296;2023-01-15T06:39:58;25.00;;;23.10;;
22881;SDS011;11608;50.894;5.296;2023-01-15T06:42:24;25.30;;;23.50;;
22881;SDS011;11608;50.894;5.296;2023-01-15T06:45:09;25.87;;;23.90;;
22881;SDS011;11608;50.894;5.296;2023-01-15T06:47:54;24.97;;;23.37;;
22881;SDS011;11608;50.894;5.296;2023-01-15T06:50:20;26.90;;;25.00;;
22881;SDS011;11608;50.894;5.296;2023-01-15T06:52:46;25.43;;;23.67;;
22881;SDS011;11608;50.894;5.296;2023-01-15T06:55:12;27.37;;;25.43;;
22881;SDS011;11608;50.894;5.296;2023-01-15T06:57:38;28.37;;;26.43;;
22881;SDS011;11608;50.894;5.296;2023-01-15T07:00:05;27.60;;;25.80;;
22881;SDS011;11608;50.894;5.296;2023-01-15T07:02:31;29.07;;;27.00;;
22881;SDS011;11608;50.894;5.296;2023-01-15T07:04:58;27.23;;;25.37;;
22881;SDS011;11608;50.894;5.296;2023-01-15T07:07:24;25.97;;;24.07;;
22881;SDS011;11608;50.894;5.296;2023-01-15T07:09:50;26.90;;;25.00;;
22881;SDS011;11608;50.894;5.296;2023-01-15T07:12:16;27.17;;;25.03;;
22881;SDS011;11608;50.894;5.296;2023-01-15T07:14:43;26.43;;;24.57;;
22881;SDS011;11608;50.894;5.296;2023-01-15T07:17:09;27.37;;;25.33;;
22881;SDS011;11608;50.894;5.296;2023-01-15T07:19:35;27.13;;;25.33;;
22881;SDS011;11608;50.894;5.296;2023-01-15T07:22:02;26.30;;;24.30;;
22881;SDS011;11608;50.894;5.296;2023-01-15T07:24:28;27.00;;;25.10;;
22881;SDS011;11608;50.894;5.296;2023-01-15T07:26:54;27.50;;;25.50;;
22881;SDS011;11608;50.894;5.296;2023-01-15T07:29:20;26.90;;;24.90;;
22881;SDS011;11608;50.894;5.296;2023-01-15T07:31:47;28.57;;;26.27;;
22881;SDS011;11608;50.894;5.296;2023-01-15T07:34:13;26.97;;;25.03;;
22881;SDS011;11608;50.894;5.296;2023-01-15T07:36:39;28.30;;;26.50;;
22881;SDS011;11608;50.894;5.296;2023-01-15T07:39:06;27.13;;;25.23;;
22881;SDS011;11608;50.894;5.296;2023-01-15T07:41:32;28.30;;;26.40;;
22881;SDS011;11608;50.894;5.296;2023-01-15T07:44:17;27.90;;;25.73;;
22881;SDS011;11608;50.894;5.296;2023-01-15T07:47:01;26.13;;;24.20;;
22881;SDS011;11608;50.894;5.296;2023-01-15T07:49:47;27.00;;;25.10;;
22881;SDS011;11608;50.894;5.296;2023-01-15T07:52:14;28.23;;;26.07;;
22881;SDS011;11608;50.894;5.296;2023-01-15T07:54:40;28.57;;;26.03;;
22881;SDS011;11608;50.894;5.296;2023-01-15T07:57:07;28.20;;;25.87;;
22881;SDS011;11608;50.894;5.296;2023-01-15T07:59:33;27.33;;;25.10;;
22881;SDS011;11608;50.894;5.296;2023-01-15T08:01:59;25.57;;;23.87;;
22881;SDS011;11608;50.894;5.296;2023-01-15T08:04:25;25.83;;;23.77;;
22881;SDS011;11608;50.894;5.296;2023-01-15T08:06:51;26.30;;;24.30;;
22881;SDS011;11608;50.894;5.296;2023-01-15T08:09:17;25.53;;;23.40;;
22881;SDS011;11608;50.894;5.296;2023-01-15T08:11:44;25.17;;;23.27;;
22881;SDS011;11608;50.894;5.296;2023-01-15T08:14:28;24.97;;;22.80;;
22881;SDS011;11608;50.894;5.296;2023-01-15T08:17:13;26.03;;;23.87;;
22881;SDS011;11608;50.894;5.296;2023-01-15T08:19:39;26.07;;;24.07;;
22881;SDS011;11608;50.894;5.296;2023-01-15T08:22:05;26.67;;;24.13;;
22881;SDS011;11608;50.894;5.296;2023-01-15T08:24:31;26.03;;;23.83;;
22881;SDS011;11608;50.894;5.296;2023-01-15T08:26:57;25.47;;;23.40;;
22881;SDS011;11608;50.894;5.296;2023-01-15T08:29:23;26.40;;;23.90;;
22881;SDS011;11608;50.894;5.296;2023-01-15T08:31:49;26.33;;;24.13;;
22881;SDS011;11608;50.894;5.296;2023-01-15T08:34:15;25.87;;;23.73;;
22881;SDS011;11608;50.894;5.296;2023-01-15T08:36:41;25.43;;;23.23;;
22881;SDS011;11608;50.894;5.296;2023-01-15T08:39:07;25.17;;;22.83;;
22881;SDS011;11608;50.894;5.296;2023-01-15T08:41:33;25.80;;;23.35;;
22881;SDS011;11608;50.894;5.296;2023-01-15T08:43:59;24.93;;;22.90;;
22881;SDS011;11608;50.894;5.296;2023-01-15T08:46:25;25.50;;;23.40;;
22881;SDS011;11608;50.894;5.296;2023-01-15T08:48:51;24.57;;;22.67;;
22881;SDS011;11608;50.894;5.296;2023-01-15T08:51:18;23.93;;;21.90;;
22881;SDS011;11608;50.894;5.296;2023-01-15T08:53:44;24.00;;;21.90;;
22881;SDS011;11608;50.894;5.296;2023-01-15T08:56:11;23.30;;;21.20;;
22881;SDS011;11608;50.894;5.296;2023-01-15T08:58:37;22.65;;;20.98;;
22881;SDS011;11608;50.894;5.296;2023-01-15T09:01:04;24.20;;;21.98;;
22881;SDS011;11608;50.894;5.296;2023-01-15T09:03:31;23.65;;;21.58;;
22881;SDS011;11608;50.894;5.296;2023-01-15T09:05:57;24.05;;;22.15;;
22881;SDS011;11608;50.894;5.296;2023-01-15T09:08:23;23.70;;;21.42;;
22881;SDS011;11608;50.894;5.296;2023-01-15T09:10:50;23.52;;;21.40;;
22881;SDS011;11608;50.894;5.296;2023-01-15T09:13:16;22.95;;;21.23;;
22881;SDS011;11608;50.894;5.296;2023-01-15T09:15:42;23.38;;;21.35;;
22881;SDS011;11608;50.894;5.296;2023-01-15T09:18:08;23.48;;;21.42;;
22881;SDS011;11608;50.894;5.296;2023-01-15T09:20:36;22.70;;;20.75;;
22881;SDS011;11608;50.894;5.296;2023-01-15T09:23:02;22.88;;;20.85;;
22881;SDS011;11608;50.894;5.296;2023-01-15T09:25:28;22.77;;;20.98;;
22881;SDS011;11608;50.894;5.296;2023-01-15T09:27:54;23.50;;;21.50;;
22881;SDS011;11608;50.894;5.296;2023-01-15T09:30:21;22.80;;;20.90;;
22881;SDS011;11608;50.894;5.296;2023-01-15T09:32:47;22.77;;;21.00;;
22881;SDS011;11608;50.894;5.296;2023-01-15T09:35:13;21.80;;;20.10;;
22881;SDS011;11608;50.894;5.296;2023-01-15T09:37:39;22.10;;;20.00;;
22881;SDS011;11608;50.894;5.296;2023-01-15T09:40:06;22.10;;;20.20;;
22881;SDS011;11608;50.894;5.296;2023-01-15T09:42:54;24.15;;;21.00;;
22881;SDS011;11608;50.894;5.296;2023-01-15T09:50:46;23.70;;;21.48;;
22881;SDS011;11608;50.894;5.296;2023-01-15T09:55:45;23.20;;;21.30;;
22881;SDS011;11608;50.894;5.296;2023-01-15T09:58:11;22.05;;;20.27;;
22881;SDS011;11608;50.894;5.296;2023-01-15T10:00:39;21.85;;;20.10;;
22881;SDS011;11608;50.894;5.296;2023-01-15T10:06:11;21.92;;;20.27;;
22881;SDS011;11608;50.894;5.296;2023-01-15T10:08:37;22.88;;;21.20;;
22881;SDS011;11608;50.894;5.296;2023-01-15T10:11:49;22.85;;;20.95;;
22881;SDS011;11608;50.894;5.296;2023-01-15T10:14:18;23.58;;;21.67;;
22881;SDS011;11608;50.894;5.296;2023-01-15T10:16:48;23.17;;;21.23;;
22881;SDS011;11608;50.894;5.296;2023-01-15T10:19:14;23.73;;;21.92;;
22881;SDS011;11608;50.894;5.296;2023-01-15T10:26:54;24.98;;;22.63;;
22881;SDS011;11608;50.894;5.296;2023-01-15T10:29:25;23.30;;;21.58;;
22881;SDS011;11608;50.894;5.296;2023-01-15T10:32:02;23.23;;;21.35;;
22881;SDS011;11608;50.894;5.296;2023-01-15T10:34:43;24.60;;;22.35;;
22881;SDS011;11608;50.894;5.296;2023-01-15T10:37:23;23.58;;;21.58;;
22881;SDS011;11608;50.894;5.296;2023-01-15T10:42:49;23.07;;;21.37;;
22881;SDS011;11608;50.894;5.296;2023-01-15T10:45:25;24.00;;;22.30;;
22881;SDS011;11608;50.894;5.296;2023-01-15T10:48:03;23.40;;;21.37;;
22881;SDS011;11608;50.894;5.296;2023-01-15T10:50:30;26.38;;;24.15;;
22881;SDS011;11608;50.894;5.296;2023-01-15T10:53:12;23.60;;;21.93;;
22881;SDS011;11608;50.894;5.296;2023-01-15T10:56:40;25.05;;;23.15;;
22881;SDS011;11608;50.894;5.296;2023-01-15T10:58:39;23.43;;;21.83;;
22881;SDS011;11608;50.894;5.296;2023-01-15T11:01:11;22.43;;;20.77;;
22881;SDS011;11608;50.894;5.296;2023-01-15T11:03:40;23.03;;;21.33;;
22881;SDS011;11608;50.894;5.296;2023-01-15T11:06:12;23.50;;;21.60;;
22881;SDS011;11608;50.894;5.296;2023-01-15T11:08:40;23.70;;;21.60;;
22881;SDS011;11608;50.894;5.296;2023-01-15T11:13:52;22.53;;;20.73;;
22881;SDS011;11608;50.894;5.296;2023-01-15T11:16:38;22.97;;;21.13;;
22881;SDS011;11608;50.894;5.296;2023-01-15T11:19:32;23.97;;;22.10;;
22881;SDS011;11608;50.894;5.296;2023-01-15T11:22:17;22.70;;;21.00;;
22881;SDS011;11608;50.894;5.296;2023-01-15T11:24:44;23.23;;;21.33;;
22881;SDS011;11608;50.894;5.296;2023-01-15T11:27:19;23.17;;;21.38;;
22881;SDS011;11608;50.894;5.296;2023-01-15T11:29:49;23.02;;;21.15;;
22881;SDS011;11608;50.894;5.296;2023-01-15T11:32:34;23.05;;;21.10;;
22881;SDS011;11608;50.894;5.296;2023-01-15T11:35:02;21.58;;;19.98;;
22881;SDS011;11608;50.894;5.296;2023-01-15T11:37:29;22.80;;;21.00;;
22881;SDS011;11608;50.894;5.296;2023-01-15T11:39:56;22.23;;;20.63;;
22881;SDS011;11608;50.894;5.296;2023-01-15T11:42:28;23.42;;;21.48;;
22881;SDS011;11608;50.894;5.296;2023-01-15T11:45:15;22.88;;;20.85;;
22881;SDS011;11608;50.894;5.296;2023-01-15T11:48:00;23.88;;;22.00;;
22881;SDS011;11608;50.894;5.296;2023-01-15T11:53:15;22.60;;;20.90;;
22881;SDS011;11608;50.894;5.296;2023-01-15T11:55:49;22.55;;;20.85;;
22881;SDS011;11608;50.894;5.296;2023-01-15T11:58:16;22.42;;;20.73;;
22881;SDS011;11608;50.894;5.296;2023-01-15T12:00:42;23.13;;;21.15;;
22881;SDS011;11608;50.894;5.296;2023-01-15T12:03:19;21.15;;;19.48;;
22881;SDS011;11608;50.894;5.296;2023-01-15T12:05:49;22.42;;;20.30;;
22881;SDS011;11608;50.894;5.296;2023-01-15T12:10:59;23.52;;;21.42;;
22881;SDS011;11608;50.894;5.296;2023-01-15T12:16:03;22.13;;;20.58;;
22881;SDS011;11608;50.894;5.296;2023-01-15T12:18:45;21.45;;;19.85;;
22881;SDS011;11608;50.894;5.296;2023-01-15T12:26:29;22.83;;;20.83;;
22881;SDS011;11608;50.894;5.296;2023-01-15T12:31:28;22.73;;;20.90;;
22881;SDS011;11608;50.894;5.296;2023-01-15T12:34:05;21.30;;;19.45;;
22881;SDS011;11608;50.894;5.296;2023-01-15T12:39:03;23.58;;;21.67;;
22881;SDS011;11608;50.894;5.296;2023-01-15T12:41:30;23.98;;;22.10;;
22881;SDS011;11608;50.894;5.296;2023-01-15T12:44:28;23.48;;;21.65;;
22881;SDS011;11608;50.894;5.296;2023-01-15T12:47:16;23.17;;;21.42;;
22881;SDS011;11608;50.894;5.296;2023-01-15T12:49:56;25.13;;;23.30;;
22881;SDS011;11608;50.894;5.296;2023-01-15T12:52:23;25.00;;;23.10;;
22881;SDS011;11608;50.894;5.296;2023-01-15T12:54:54;23.17;;;21.58;;
22881;SDS011;11608;50.894;5.296;2023-01-15T12:57:33;24.20;;;22.05;;
22881;SDS011;11608;50.894;5.296;2023-01-15T13:00:02;24.53;;;22.50;;
22881;SDS011;11608;50.894;5.296;2023-01-15T13:02:35;23.48;;;21.67;;
22881;SDS011;11608;50.894;5.296;2023-01-15T13:08:09;24.05;;;21.70;;
22881;SDS011;11608;50.894;5.296;2023-01-15T13:10:40;22.58;;;20.85;;
22881;SDS011;11608;50.894;5.296;2023-01-15T13:13:14;23.60;;;21.60;;
22881;SDS011;11608;50.894;5.296;2023-01-15T13:18:27;22.90;;;21.20;;
22881;SDS011;11608;50.894;5.296;2023-01-15T13:20:55;23.20;;;21.40;;
22881;SDS011;11608;50.894;5.296;2023-01-15T13:24:06;22.88;;;21.23;;
22881;SDS011;11608;50.894;5.296;2023-01-15T13:28:57;23.17;;;21.35;;
22881;SDS011;11608;50.894;5.296;2023-01-15T13:34:13;24.20;;;22.10;;
22881;SDS011;11608;50.894;5.296;2023-01-15T13:36:42;23.70;;;21.80;;
22881;SDS011;11608;50.894;5.296;2023-01-15T13:39:14;22.90;;;21.20;;
22881;SDS011;11608;50.894;5.296;2023-01-15T13:41:41;22.52;;;20.95;;
22881;SDS011;11608;50.894;5.296;2023-01-15T13:44:28;22.13;;;20.58;;
22881;SDS011;11608;50.894;5.296;2023-01-15T13:47:00;22.00;;;20.33;;
22881;SDS011;11608;50.894;5.296;2023-01-15T13:49:31;22.63;;;21.02;;
22881;SDS011;11608;50.894;5.296;2023-01-15T13:51:58;22.73;;;20.85;;
22881;SDS011;11608;50.894;5.296;2023-01-15T13:54:28;22.67;;;20.97;;
22881;SDS011;11608;50.894;5.296;2023-01-15T13:57:09;22.45;;;20.55;;
22881;SDS011;11608;50.894;5.296;2023-01-15T13:59:42;22.70;;;21.10;;
22881;SDS011;11608;50.894;5.296;2023-01-15T14:02:19;22.52;;;20.83;;
22881;SDS011;11608;50.894;5.296;2023-01-15T14:04:47;22.77;;;20.85;;
22881;SDS011;11608;50.894;5.296;2023-01-15T14:07:17;22.88;;;20.85;;
22881;SDS011;11608;50.894;5.296;2023-01-15T14:09:44;22.60;;;20.87;;
22881;SDS011;11608;50.894;5.296;2023-01-15T14:25:26;22.80;;;21.10;;
22881;SDS011;11608;50.894;5.296;2023-01-15T14:28:03;24.03;;;22.33;;
22881;SDS011;11608;50.894;5.296;2023-01-15T14:33:26;22.70;;;21.00;;
22881;SDS011;11608;50.894;5.296;2023-01-15T14:35:55;22.77;;;20.87;;
22881;SDS011;11608;50.894;5.296;2023-01-15T14:38:22;21.85;;;20.35;;
22881;SDS011;11608;50.894;5.296;2023-01-15T14:43:23;23.45;;;21.77;;
22881;SDS011;11608;50.894;5.296;2023-01-15T14:45:51;23.83;;;22.13;;
22881;SDS011;11608;50.894;5.296;2023-01-15T14:48:19;23.57;;;21.70;;
22881;SDS011;11608;50.894;5.296;2023-01-15T14:50:45;23.30;;;21.63;;
22881;SDS011;11608;50.894;5.296;2023-01-15T14:58:05;24.20;;;22.33;;
22881;SDS011;11608;50.894;5.296;2023-01-15T15:00:37;23.57;;;21.87;;
22881;SDS011;11608;50.894;5.296;2023-01-15T15:03:16;24.67;;;22.60;;
22881;SDS011;11608;50.894;5.296;2023-01-15T15:05:44;23.80;;;21.80;;
22881;SDS011;11608;50.894;5.296;2023-01-15T15:08:15;24.43;;;22.63;;
22881;SDS011;11608;50.894;5.296;2023-01-15T15:10:42;23.37;;;21.70;;
22881;SDS011;11608;50.894;5.296;2023-01-15T15:15:47;25.27;;;23.53;;
22881;SDS011;11608;50.894;5.296;2023-01-15T15:18:25;26.17;;;23.90;;
22881;SDS011;11608;50.894;5.296;2023-01-15T15:28:55;25.07;;;23.37;;
22881;SDS011;11608;50.894;5.296;2023-01-15T15:31:21;26.88;;;24.73;;
22881;SDS011;11608;50.894;5.296;2023-01-15T15:33:51;25.25;;;23.55;;
22881;SDS011;11608;50.894;5.296;2023-01-15T15:36:18;27.52;;;25.73;;
22881;SDS011;11608;50.894;5.296;2023-01-15T15:38:55;26.05;;;24.23;;
22881;SDS011;11608;50.894;5.296;2023-01-15T15:41:23;25.93;;;24.13;;
22881;SDS011;11608;50.894;5.296;2023-01-15T15:44:12;23.87;;;22.27;;
22881;SDS011;11608;50.894;5.296;2023-01-15T15:46:59;23.70;;;21.90;;
22881;SDS011;11608;50.894;5.296;2023-01-15T15:49:45;22.50;;;20.90;;
22881;SDS011;11608;50.894;5.296;2023-01-15T15:52:21;23.77;;;22.17;;
22881;SDS011;11608;50.894;5.296;2023-01-15T15:54:59;23.77;;;22.07;;
22881;SDS011;11608;50.894;5.296;2023-01-15T15:57:28;24.20;;;22.70;;
22881;SDS011;11608;50.894;5.296;2023-01-15T15:59:55;22.03;;;20.57;;
22881;SDS011;11608;50.894;5.296;2023-01-15T16:02:26;23.40;;;21.90;;
22881;SDS011;11608;50.894;5.296;2023-01-15T16:04:57;23.07;;;21.53;;
22881;SDS011;11608;50.894;5.296;2023-01-15T16:07:30;23.40;;;21.73;;
22881;SDS011;11608;50.894;5.296;2023-01-15T16:10:14;24.13;;;22.20;;
22881;SDS011;11608;50.894;5.296;2023-01-15T16:12:45;24.60;;;23.10;;
22881;SDS011;11608;50.894;5.296;2023-01-15T16:15:13;23.60;;;22.10;;
22881;SDS011;11608;50.894;5.296;2023-01-15T16:17:40;23.93;;;22.20;;
22881;SDS011;11608;50.894;5.296;2023-01-15T16:20:17;22.97;;;21.27;;
22881;SDS011;11608;50.894;5.296;2023-01-15T16:22:44;23.23;;;21.30;;
22881;SDS011;11608;50.894;5.296;2023-01-15T16:25:19;22.63;;;21.00;;